sensor_id;sensor_type;location;lat;lon;timestamp;P1;durP1;ratioP1;P2;durP2;ratioP2
64598;SDS011;51008;51.504;11.548;2022-08-19T00:02:32;40.90;;;30.95;;
64598;SDS011;51008;51.504;11.548;2022-08-19T00:07:33;43.17;;;30.63;;
64598;SDS011;51008;51.504;11.548;2022-08-19T00:12:34;40.13;;;30.42;;
64598;SDS011;51008;51.504;11.548;2022-08-19T00:17:35;41.03;;;30.33;;
64598;SDS011;51008;51.504;11.548;2022-08-19T00:22:37;48.47;;;33.55;;
64598;SDS011;51008;51.504;11.548;2022-08-19T00:27:38;44.15;;;32.70;;
64598;SDS011;51008;51.504;11.548;2022-08-19T00:32:39;45.13;;;32.38;;
64598;SDS011;51008;51.504;11.548;2022-08-19T00:37:40;48.55;;;35.33;;
64598;SDS011;51008;51.504;11.548;2022-08-19T00:42:41;51.85;;;36.97;;
64598;SDS011;51008;51.504;11.548;2022-08-19T00:47:43;53.58;;;40.03;;
64598;SDS011;51008;51.504;11.548;2022-08-19T00:52:46;53.95;;;39.50;;
64598;SDS011;51008;51.504;11.548;2022-08-19T00:57:51;57.20;;;41.47;;
64598;SDS011;51008;51.504;11.548;2022-08-19T01:02:58;57.35;;;41.95;;
64598;SDS011;51008;51.504;11.548;2022-08-19T01:08:00;52.85;;;40.38;;
64598;SDS011;51008;51.504;11.548;2022-08-19T01:13:03;52.47;;;38.60;;
64598;SDS011;51008;51.504;11.548;2022-08-19T01:18:06;55.05;;;39.63;;
64598;SDS011;51008;51.504;11.548;2022-08-19T01:23:10;51.60;;;37.00;;
64598;SDS011;51008;51.504;11.548;2022-08-19T01:28:22;49.22;;;35.50;;
64598;SDS011;51008;51.504;11.548;2022-08-19T01:33:26;53.55;;;38.10;;
64598;SDS011;51008;51.504;11.548;2022-08-19T01:38:27;57.95;;;42.60;;
64598;SDS011;51008;51.504;11.548;2022-08-19T01:43:28;70.28;;;48.90;;
64598;SDS011;51008;51.504;11.548;2022-08-19T01:48:33;69.82;;;47.45;;
64598;SDS011;51008;51.504;11.548;2022-08-19T01:53:35;66.63;;;45.85;;
64598;SDS011;51008;51.504;11.548;2022-08-19T01:58:38;62.35;;;45.17;;
64598;SDS011;51008;51.504;11.548;2022-08-19T02:03:44;68.57;;;46.25;;
64598;SDS011;51008;51.504;11.548;2022-08-19T02:08:46;69.68;;;47.80;;
64598;SDS011;51008;51.504;11.548;2022-08-19T02:13:47;67.55;;;47.03;;
64598;SDS011;51008;51.504;11.548;2022-08-19T02:18:48;68.28;;;48.05;;
64598;SDS011;51008;51.504;11.548;2022-08-19T02:23:49;74.22;;;48.10;;
64598;SDS011;51008;51.504;11.548;2022-08-19T02:28:50;74.55;;;49.05;;
64598;SDS011;51008;51.504;11.548;2022-08-19T02:33:52;72.30;;;49.97;;
64598;SDS011;51008;51.504;11.548;2022-08-19T02:38:53;73.72;;;48.65;;
64598;SDS011;51008;51.504;11.548;2022-08-19T02:43:55;71.82;;;48.33;;
64598;SDS011;51008;51.504;11.548;2022-08-19T02:48:58;71.38;;;48.67;;
64598;SDS011;51008;51.504;11.548;2022-08-19T02:54:01;70.80;;;48.22;;
64598;SDS011;51008;51.504;11.548;2022-08-19T02:59:03;67.70;;;46.63;;
64598;SDS011;51008;51.504;11.548;2022-08-19T03:04:05;70.20;;;47.88;;
64598;SDS011;51008;51.504;11.548;2022-08-19T03:09:07;72.95;;;49.40;;
64598;SDS011;51008;51.504;11.548;2022-08-19T03:14:09;73.65;;;47.55;;
64598;SDS011;51008;51.504;11.548;2022-08-19T03:19:10;74.63;;;46.50;;
64598;SDS011;51008;51.504;11.548;2022-08-19T03:24:12;72.68;;;46.35;;
64598;SDS011;51008;51.504;11.548;2022-08-19T03:29:14;66.35;;;44.50;;
64598;SDS011;51008;51.504;11.548;2022-08-19T03:34:18;64.35;;;42.92;;
64598;SDS011;51008;51.504;11.548;2022-08-19T03:39:21;61.63;;;42.67;;
64598;SDS011;51008;51.504;11.548;2022-08-19T03:44:24;61.60;;;41.60;;
64598;SDS011;51008;51.504;11.548;2022-08-19T03:49:26;54.92;;;39.47;;
64598;SDS011;51008;51.504;11.548;2022-08-19T03:54:29;57.85;;;39.50;;
64598;SDS011;51008;51.504;11.548;2022-08-19T03:59:31;54.45;;;38.03;;
64598;SDS011;51008;51.504;11.548;2022-08-19T04:04:34;56.40;;;37.38;;
64598;SDS011;51008;51.504;11.548;2022-08-19T04:09:36;47.10;;;34.92;;
64598;SDS011;51008;51.504;11.548;2022-08-19T04:14:37;45.60;;;33.17;;
64598;SDS011;51008;51.504;11.548;2022-08-19T04:19:38;53.58;;;35.03;;
64598;SDS011;51008;51.504;11.548;2022-08-19T04:24:40;48.85;;;35.08;;
64598;SDS011;51008;51.504;11.548;2022-08-19T04:29:41;47.33;;;33.03;;
64598;SDS011;51008;51.504;11.548;2022-08-19T04:34:42;43.45;;;32.40;;
64598;SDS011;51008;51.504;11.548;2022-08-19T04:39:43;44.00;;;32.17;;
64598;SDS011;51008;51.504;11.548;2022-08-19T04:44:43;43.90;;;32.90;;
64598;SDS011;51008;51.504;11.548;2022-08-19T04:49:44;46.78;;;32.85;;
64598;SDS011;51008;51.504;11.548;2022-08-19T04:54:45;51.30;;;33.22;;
64598;SDS011;51008;51.504;11.548;2022-08-19T04:59:46;44.28;;;31.70;;
64598;SDS011;51008;51.504;11.548;2022-08-19T05:04:47;39.88;;;29.38;;
64598;SDS011;51008;51.504;11.548;2022-08-19T05:09:48;39.88;;;31.33;;
64598;SDS011;51008;51.504;11.548;2022-08-19T05:14:49;42.33;;;31.70;;
64598;SDS011;51008;51.504;11.548;2022-08-19T05:19:50;46.95;;;31.55;;
64598;SDS011;51008;51.504;11.548;2022-08-19T05:24:51;44.13;;;34.60;;
64598;SDS011;51008;51.504;11.548;2022-08-19T05:29:52;42.90;;;32.88;;
64598;SDS011;51008;51.504;11.548;2022-08-19T05:34:53;43.53;;;31.75;;
64598;SDS011;51008;51.504;11.548;2022-08-19T05:39:54;38.08;;;29.77;;
64598;SDS011;51008;51.504;11.548;2022-08-19T05:44:55;40.22;;;27.63;;
64598;SDS011;51008;51.504;11.548;2022-08-19T05:49:56;40.35;;;27.13;;
64598;SDS011;51008;51.504;11.548;2022-08-19T05:54:57;34.83;;;24.95;;
64598;SDS011;51008;51.504;11.548;2022-08-19T05:59:58;33.25;;;25.02;;
64598;SDS011;51008;51.504;11.548;2022-08-19T06:04:59;41.55;;;29.80;;
64598;SDS011;51008;51.504;11.548;2022-08-19T06:10:00;42.30;;;31.85;;
64598;SDS011;51008;51.504;11.548;2022-08-19T06:15:06;45.65;;;31.80;;
64598;SDS011;51008;51.504;11.548;2022-08-19T06:20:12;38.97;;;29.42;;
64598;SDS011;51008;51.504;11.548;2022-08-19T06:25:14;41.40;;;29.35;;
64598;SDS011;51008;51.504;11.548;2022-08-19T06:30:16;37.40;;;26.98;;
64598;SDS011;51008;51.504;11.548;2022-08-19T06:35:17;39.78;;;27.65;;
64598;SDS011;51008;51.504;11.548;2022-08-19T06:40:18;33.65;;;25.30;;
64598;SDS011;51008;51.504;11.548;2022-08-19T06:45:19;31.88;;;23.45;;
64598;SDS011;51008;51.504;11.548;2022-08-19T06:50:20;28.60;;;21.38;;
64598;SDS011;51008;51.504;11.548;2022-08-19T06:55:25;31.20;;;23.65;;
64598;SDS011;51008;51.504;11.548;2022-08-19T07:00:26;30.70;;;23.23;;
64598;SDS011;51008;51.504;11.548;2022-08-19T07:05:27;31.00;;;24.05;;
64598;SDS011;51008;51.504;11.548;2022-08-19T07:10:27;32.20;;;22.90;;
64598;SDS011;51008;51.504;11.548;2022-08-19T07:15:31;31.33;;;21.10;;
64598;SDS011;51008;51.504;11.548;2022-08-19T07:20:32;29.02;;;20.30;;
64598;SDS011;51008;51.504;11.548;2022-08-19T07:25:33;31.80;;;21.05;;
64598;SDS011;51008;51.504;11.548;2022-08-19T07:30:37;28.05;;;20.00;;
64598;SDS011;51008;51.504;11.548;2022-08-19T07:35:38;27.35;;;20.10;;
64598;SDS011;51008;51.504;11.548;2022-08-19T07:40:39;26.35;;;20.40;;
64598;SDS011;51008;51.504;11.548;2022-08-19T07:45:40;27.10;;;18.77;;
64598;SDS011;51008;51.504;11.548;2022-08-19T07:50:41;27.95;;;20.77;;
64598;SDS011;51008;51.504;11.548;2022-08-19T07:55:42;32.63;;;23.90;;
64598;SDS011;51008;51.504;11.548;2022-08-19T08:00:44;32.13;;;24.80;;
64598;SDS011;51008;51.504;11.548;2022-08-19T08:05:46;34.40;;;25.53;;
64598;SDS011;51008;51.504;11.548;2022-08-19T08:10:47;29.70;;;23.23;;
64598;SDS011;51008;51.504;11.548;2022-08-19T08:15:48;28.45;;;22.80;;
64598;SDS011;51008;51.504;11.548;2022-08-19T08:20:49;30.05;;;22.45;;
64598;SDS011;51008;51.504;11.548;2022-08-19T08:25:51;25.02;;;20.45;;
64598;SDS011;51008;51.504;11.548;2022-08-19T08:30:54;26.08;;;20.15;;
64598;SDS011;51008;51.504;11.548;2022-08-19T08:35:55;25.25;;;19.58;;
64598;SDS011;51008;51.504;11.548;2022-08-19T08:40:59;27.38;;;21.10;;
64598;SDS011;51008;51.504;11.548;2022-08-19T08:51:15;27.23;;;20.67;;
64598;SDS011;51008;51.504;11.548;2022-08-19T08:56:24;28.92;;;20.75;;
64598;SDS011;51008;51.504;11.548;2022-08-19T09:01:25;27.27;;;21.17;;
64598;SDS011;51008;51.504;11.548;2022-08-19T09:17:29;28.80;;;22.00;;
64598;SDS011;51008;51.504;11.548;2022-08-19T09:22:32;31.10;;;21.45;;
64598;SDS011;51008;51.504;11.548;2022-08-19T09:27:33;27.25;;;21.35;;
64598;SDS011;51008;51.504;11.548;2022-08-19T09:32:34;29.02;;;20.85;;
64598;SDS011;51008;51.504;11.548;2022-08-19T09:37:35;25.33;;;19.85;;
64598;SDS011;51008;51.504;11.548;2022-08-19T09:42:36;26.83;;;18.98;;
64598;SDS011;51008;51.504;11.548;2022-08-19T09:47:37;27.45;;;19.27;;
64598;SDS011;51008;51.504;11.548;2022-08-19T09:52:39;23.27;;;18.00;;
64598;SDS011;51008;51.504;11.548;2022-08-19T09:57:40;22.30;;;16.42;;
64598;SDS011;51008;51.504;11.548;2022-08-19T10:02:41;20.55;;;15.77;;
64598;SDS011;51008;51.504;11.548;2022-08-19T10:07:42;21.50;;;15.82;;
64598;SDS011;51008;51.504;11.548;2022-08-19T10:12:43;19.60;;;15.07;;
64598;SDS011;51008;51.504;11.548;2022-08-19T10:17:44;18.50;;;13.93;;
64598;SDS011;51008;51.504;11.548;2022-08-19T10:22:45;15.27;;;12.52;;
64598;SDS011;51008;51.504;11.548;2022-08-19T10:27:46;17.60;;;13.40;;
64598;SDS011;51008;51.504;11.548;2022-08-19T10:32:47;16.83;;;12.18;;
64598;SDS011;51008;51.504;11.548;2022-08-19T10:37:47;18.05;;;11.90;;
64598;SDS011;51008;51.504;11.548;2022-08-19T10:42:49;16.13;;;11.65;;
64598;SDS011;51008;51.504;11.548;2022-08-19T10:47:50;15.43;;;11.73;;
64598;SDS011;51008;51.504;11.548;2022-08-19T10:52:50;13.18;;;10.38;;
64598;SDS011;51008;51.504;11.548;2022-08-19T10:57:51;16.70;;;11.25;;
64598;SDS011;51008;51.504;11.548;2022-08-19T11:02:52;13.07;;;11.50;;
64598;SDS011;51008;51.504;11.548;2022-08-19T11:07:53;13.98;;;10.80;;
64598;SDS011;51008;51.504;11.548;2022-08-19T11:12:54;14.95;;;10.45;;
64598;SDS011;51008;51.504;11.548;2022-08-19T11:17:55;13.60;;;9.70;;
64598;SDS011;51008;51.504;11.548;2022-08-19T11:22:56;16.15;;;9.50;;
64598;SDS011;51008;51.504;11.548;2022-08-19T11:27:57;11.27;;;8.70;;
64598;SDS011;51008;51.504;11.548;2022-08-19T11:32:58;12.38;;;8.10;;
64598;SDS011;51008;51.504;11.548;2022-08-19T11:37:59;13.00;;;8.50;;
64598;SDS011;51008;51.504;11.548;2022-08-19T11:43:00;11.98;;;9.40;;
64598;SDS011;51008;51.504;11.548;2022-08-19T11:48:01;12.50;;;8.98;;
64598;SDS011;51008;51.504;11.548;2022-08-19T11:53:02;13.35;;;9.18;;
64598;SDS011;51008;51.504;11.548;2022-08-19T11:58:03;11.20;;;9.38;;
64598;SDS011;51008;51.504;11.548;2022-08-19T12:03:04;13.00;;;9.52;;
64598;SDS011;51008;51.504;11.548;2022-08-19T12:08:05;13.25;;;9.85;;
64598;SDS011;51008;51.504;11.548;2022-08-19T12:13:06;13.63;;;10.07;;
64598;SDS011;51008;51.504;11.548;2022-08-19T12:18:08;13.90;;;9.98;;
64598;SDS011;51008;51.504;11.548;2022-08-19T12:23:09;11.48;;;9.40;;
64598;SDS011;51008;51.504;11.548;2022-08-19T12:28:10;13.18;;;9.18;;
64598;SDS011;51008;51.504;11.548;2022-08-19T12:33:11;13.55;;;9.52;;
64598;SDS011;51008;51.504;11.548;2022-08-19T12:38:13;11.95;;;8.63;;
64598;SDS011;51008;51.504;11.548;2022-08-19T12:43:14;12.63;;;9.80;;
64598;SDS011;51008;51.504;11.548;2022-08-19T12:48:15;14.90;;;9.68;;
64598;SDS011;51008;51.504;11.548;2022-08-19T12:53:16;13.45;;;10.63;;
64598;SDS011;51008;51.504;11.548;2022-08-19T12:58:17;14.57;;;10.77;;
64598;SDS011;51008;51.504;11.548;2022-08-19T13:03:18;13.98;;;10.85;;
64598;SDS011;51008;51.504;11.548;2022-08-19T13:08:19;16.52;;;11.70;;
64598;SDS011;51008;51.504;11.548;2022-08-19T13:13:20;15.30;;;12.25;;
64598;SDS011;51008;51.504;11.548;2022-08-19T13:18:21;13.77;;;11.27;;
64598;SDS011;51008;51.504;11.548;2022-08-19T13:23:22;13.40;;;11.05;;
64598;SDS011;51008;51.504;11.548;2022-08-19T13:28:23;13.15;;;11.05;;
64598;SDS011;51008;51.504;11.548;2022-08-19T13:33:24;14.45;;;10.75;;
64598;SDS011;51008;51.504;11.548;2022-08-19T13:38:25;12.38;;;10.15;;
64598;SDS011;51008;51.504;11.548;2022-08-19T13:43:26;12.40;;;9.25;;
64598;SDS011;51008;51.504;11.548;2022-08-19T13:48:27;13.52;;;9.02;;
64598;SDS011;51008;51.504;11.548;2022-08-19T13:53:28;13.57;;;9.43;;
64598;SDS011;51008;51.504;11.548;2022-08-19T13:58:29;11.70;;;8.43;;
64598;SDS011;51008;51.504;11.548;2022-08-19T14:03:31;12.88;;;9.38;;
64598;SDS011;51008;51.504;11.548;2022-08-19T14:08:33;10.18;;;8.70;;
64598;SDS011;51008;51.504;11.548;2022-08-19T14:13:34;11.75;;;8.88;;
64598;SDS011;51008;51.504;11.548;2022-08-19T14:18:35;9.82;;;7.55;;
64598;SDS011;51008;51.504;11.548;2022-08-19T14:23:36;8.95;;;7.38;;
64598;SDS011;51008;51.504;11.548;2022-08-19T14:28:37;10.80;;;7.80;;
64598;SDS011;51008;51.504;11.548;2022-08-19T14:33:39;14.68;;;8.75;;
64598;SDS011;51008;51.504;11.548;2022-08-19T14:38:41;9.70;;;8.40;;
64598;SDS011;51008;51.504;11.548;2022-08-19T14:43:43;9.40;;;7.80;;
64598;SDS011;51008;51.504;11.548;2022-08-19T14:48:45;11.20;;;8.07;;
64598;SDS011;51008;51.504;11.548;2022-08-19T14:53:46;13.55;;;8.30;;
64598;SDS011;51008;51.504;11.548;2022-08-19T14:58:48;13.18;;;8.77;;
64598;SDS011;51008;51.504;11.548;2022-08-19T15:03:49;10.10;;;7.75;;
64598;SDS011;51008;51.504;11.548;2022-08-19T15:08:50;13.20;;;8.18;;
64598;SDS011;51008;51.504;11.548;2022-08-19T15:13:52;12.93;;;7.50;;
64598;SDS011;51008;51.504;11.548;2022-08-19T15:18:54;12.68;;;7.72;;
64598;SDS011;51008;51.504;11.548;2022-08-19T15:23:57;10.13;;;7.03;;
64598;SDS011;51008;51.504;11.548;2022-08-19T15:28:59;12.47;;;8.00;;
64598;SDS011;51008;51.504;11.548;2022-08-19T15:34:02;14.25;;;10.80;;
64598;SDS011;51008;51.504;11.548;2022-08-19T15:39:04;12.30;;;9.20;;
64598;SDS011;51008;51.504;11.548;2022-08-19T15:44:07;19.25;;;12.07;;
64598;SDS011;51008;51.504;11.548;2022-08-19T15:49:10;13.40;;;11.57;;
64598;SDS011;51008;51.504;11.548;2022-08-19T15:54:14;14.98;;;11.63;;
64598;SDS011;51008;51.504;11.548;2022-08-19T15:59:17;14.65;;;11.63;;
64598;SDS011;51008;51.504;11.548;2022-08-19T16:04:18;16.70;;;12.02;;
64598;SDS011;51008;51.504;11.548;2022-08-19T16:09:20;13.63;;;10.40;;
64598;SDS011;51008;51.504;11.548;2022-08-19T16:14:22;15.57;;;9.05;;
64598;SDS011;51008;51.504;11.548;2022-08-19T16:19:24;15.05;;;9.10;;
64598;SDS011;51008;51.504;11.548;2022-08-19T16:24:25;12.23;;;8.85;;
64598;SDS011;51008;51.504;11.548;2022-08-19T16:29:27;14.15;;;9.15;;
64598;SDS011;51008;51.504;11.548;2022-08-19T16:34:28;11.98;;;9.40;;
64598;SDS011;51008;51.504;11.548;2022-08-19T16:39:30;11.35;;;10.15;;
64598;SDS011;51008;51.504;11.548;2022-08-19T16:44:31;13.93;;;11.45;;
64598;SDS011;51008;51.504;11.548;2022-08-19T16:49:32;13.00;;;10.70;;
64598;SDS011;51008;51.504;11.548;2022-08-19T16:54:33;15.10;;;11.75;;
64598;SDS011;51008;51.504;11.548;2022-08-19T16:59:34;16.52;;;11.00;;
64598;SDS011;51008;51.504;11.548;2022-08-19T17:04:35;14.88;;;10.85;;
64598;SDS011;51008;51.504;11.548;2022-08-19T17:09:36;15.65;;;9.70;;
64598;SDS011;51008;51.504;11.548;2022-08-19T17:14:37;11.98;;;10.07;;
64598;SDS011;51008;51.504;11.548;2022-08-19T17:19:39;13.63;;;10.00;;
64598;SDS011;51008;51.504;11.548;2022-08-19T17:24:44;12.05;;;9.75;;
64598;SDS011;51008;51.504;11.548;2022-08-19T17:29:45;11.43;;;8.80;;
64598;SDS011;51008;51.504;11.548;2022-08-19T17:34:46;10.88;;;8.57;;
64598;SDS011;51008;51.504;11.548;2022-08-19T17:39:47;11.07;;;8.45;;
64598;SDS011;51008;51.504;11.548;2022-08-19T17:44:48;12.30;;;9.73;;
64598;SDS011;51008;51.504;11.548;2022-08-19T17:49:48;14.13;;;10.77;;
64598;SDS011;51008;51.504;11.548;2022-08-19T17:54:50;15.90;;;11.23;;
64598;SDS011;51008;51.504;11.548;2022-08-19T17:59:51;12.43;;;11.02;;
64598;SDS011;51008;51.504;11.548;2022-08-19T18:04:52;18.38;;;12.75;;
64598;SDS011;51008;51.504;11.548;2022-08-19T18:09:53;16.88;;;12.77;;
64598;SDS011;51008;51.504;11.548;2022-08-19T18:14:54;17.90;;;14.13;;
64598;SDS011;51008;51.504;11.548;2022-08-19T18:19:57;17.63;;;12.90;;
64598;SDS011;51008;51.504;11.548;2022-08-19T18:24:59;17.10;;;11.77;;
64598;SDS011;51008;51.504;11.548;2022-08-19T18:30:02;15.73;;;13.07;;
64598;SDS011;51008;51.504;11.548;2022-08-19T18:35:05;14.35;;;12.23;;
64598;SDS011;51008;51.504;11.548;2022-08-19T18:40:11;20.75;;;12.32;;
64598;SDS011;51008;51.504;11.548;2022-08-19T18:45:14;15.98;;;11.82;;
64598;SDS011;51008;51.504;11.548;2022-08-19T18:50:15;15.93;;;11.57;;
64598;SDS011;51008;51.504;11.548;2022-08-19T18:55:16;16.70;;;11.27;;
64598;SDS011;51008;51.504;11.548;2022-08-19T19:00:16;15.02;;;10.82;;
64598;SDS011;51008;51.504;11.548;2022-08-19T19:05:18;14.15;;;10.15;;
64598;SDS011;51008;51.504;11.548;2022-08-19T19:10:19;14.60;;;11.32;;
64598;SDS011;51008;51.504;11.548;2022-08-19T19:15:19;13.85;;;11.05;;
64598;SDS011;51008;51.504;11.548;2022-08-19T19:20:20;12.95;;;10.48;;
64598;SDS011;51008;51.504;11.548;2022-08-19T19:25:21;18.33;;;11.77;;
64598;SDS011;51008;51.504;11.548;2022-08-19T19:30:22;14.98;;;11.73;;
64598;SDS011;51008;51.504;11.548;2022-08-19T19:35:24;14.32;;;11.68;;
64598;SDS011;51008;51.504;11.548;2022-08-19T19:40:25;21.73;;;13.35;;
64598;SDS011;51008;51.504;11.548;2022-08-19T19:45:26;13.93;;;12.10;;
64598;SDS011;51008;51.504;11.548;2022-08-19T19:50:27;20.13;;;12.55;;
64598;SDS011;51008;51.504;11.548;2022-08-19T19:55:28;16.27;;;11.93;;
64598;SDS011;51008;51.504;11.548;2022-08-19T20:00:29;18.60;;;13.23;;
64598;SDS011;51008;51.504;11.548;2022-08-19T20:05:30;16.73;;;14.00;;
64598;SDS011;51008;51.504;11.548;2022-08-19T20:10:31;16.48;;;11.93;;
64598;SDS011;51008;51.504;11.548;2022-08-19T20:15:32;21.10;;;13.85;;
64598;SDS011;51008;51.504;11.548;2022-08-19T20:20:33;19.48;;;13.40;;
64598;SDS011;51008;51.504;11.548;2022-08-19T20:25:36;18.58;;;13.38;;
64598;SDS011;51008;51.504;11.548;2022-08-19T20:30:37;18.63;;;12.97;;
64598;SDS011;51008;51.504;11.548;2022-08-19T20:35:39;18.02;;;12.25;;
64598;SDS011;51008;51.504;11.548;2022-08-19T20:40:40;20.83;;;13.75;;
64598;SDS011;51008;51.504;11.548;2022-08-19T20:45:41;15.55;;;13.02;;
64598;SDS011;51008;51.504;11.548;2022-08-19T20:50:42;18.90;;;13.43;;
64598;SDS011;51008;51.504;11.548;2022-08-19T20:55:43;15.38;;;13.30;;
64598;SDS011;51008;51.504;11.548;2022-08-19T21:00:46;15.47;;;13.30;;
64598;SDS011;51008;51.504;11.548;2022-08-19T21:05:48;17.17;;;12.82;;
64598;SDS011;51008;51.504;11.548;2022-08-19T21:10:50;17.55;;;13.70;;
64598;SDS011;51008;51.504;11.548;2022-08-19T21:15:52;21.60;;;14.50;;
64598;SDS011;51008;51.504;11.548;2022-08-19T21:20:53;19.08;;;13.38;;
64598;SDS011;51008;51.504;11.548;2022-08-19T21:25:55;23.02;;;14.70;;
64598;SDS011;51008;51.504;11.548;2022-08-19T21:30:57;20.10;;;12.95;;
64598;SDS011;51008;51.504;11.548;2022-08-19T21:35:59;20.63;;;13.68;;
64598;SDS011;51008;51.504;11.548;2022-08-19T21:41:00;23.83;;;13.82;;
64598;SDS011;51008;51.504;11.548;2022-08-19T21:46:02;19.75;;;14.32;;
64598;SDS011;51008;51.504;11.548;2022-08-19T21:51:03;16.73;;;12.85;;
64598;SDS011;51008;51.504;11.548;2022-08-19T21:56:04;21.70;;;14.15;;
64598;SDS011;51008;51.504;11.548;2022-08-19T22:01:05;21.75;;;15.93;;
64598;SDS011;51008;51.504;11.548;2022-08-19T22:06:06;20.98;;;15.07;;
64598;SDS011;51008;51.504;11.548;2022-08-19T22:11:08;21.10;;;16.08;;
64598;SDS011;51008;51.504;11.548;2022-08-19T22:16:09;27.15;;;17.80;;
64598;SDS011;51008;51.504;11.548;2022-08-19T22:21:10;22.63;;;17.13;;
64598;SDS011;51008;51.504;11.548;2022-08-19T22:26:11;21.90;;;17.08;;
64598;SDS011;51008;51.504;11.548;2022-08-19T22:31:14;23.10;;;16.92;;
64598;SDS011;51008;51.504;11.548;2022-08-19T22:36:15;21.17;;;16.50;;
64598;SDS011;51008;51.504;11.548;2022-08-19T22:41:16;22.55;;;17.60;;
64598;SDS011;51008;51.504;11.548;2022-08-19T22:46:17;22.92;;;16.42;;
64598;SDS011;51008;51.504;11.548;2022-08-19T22:51:18;21.98;;;17.00;;
64598;SDS011;51008;51.504;11.548;2022-08-19T22:56:19;23.85;;;17.27;;
64598;SDS011;51008;51.504;11.548;2022-08-19T23:01:20;20.85;;;17.08;;
64598;SDS011;51008;51.504;11.548;2022-08-19T23:06:22;21.95;;;16.55;;
64598;SDS011;51008;51.504;11.548;2022-08-19T23:11:23;18.88;;;15.30;;
64598;SDS011;51008;51.504;11.548;2022-08-19T23:16:24;22.48;;;15.10;;
64598;SDS011;51008;51.504;11.548;2022-08-19T23:21:24;22.50;;;16.23;;
64598;SDS011;51008;51.504;11.548;2022-08-19T23:26:25;20.50;;;15.45;;
64598;SDS011;51008;51.504;11.548;2022-08-19T23:31:26;24.92;;;17.25;;
64598;SDS011;51008;51.504;11.548;2022-08-19T23:36:27;25.25;;;18.17;;
64598;SDS011;51008;51.504;11.548;2022-08-19T23:41:28;23.67;;;17.95;;
64598;SDS011;51008;51.504;11.548;2022-08-19T23:46:29;23.90;;;17.67;;
64598;SDS011;51008;51.504;11.548;2022-08-19T23:51:30;23.63;;;17.75;;
64598;SDS011;51008;51.504;11.548;2022-08-19T23:56:31;22.92;;;16.75;;
